createdAt,value
2023-05-14T00:00:49.860Z,92720.91
2023-05-14T00:03:16.474Z,92709.63
2023-05-14T00:05:43.117Z,92706.75
2023-05-14T00:08:09.525Z,92706.22
2023-05-14T00:10:35.962Z,92708.59
2023-05-14T00:13:02.452Z,92706.25
2023-05-14T00:15:28.954Z,92702.03
2023-05-14T00:17:55.596Z,92700.19
2023-05-14T00:20:22.194Z,92697.84
2023-05-14T00:22:48.726Z,92698.88
2023-05-14T00:25:15.140Z,92696.00
2023-05-14T00:27:41.565Z,92699.16
2023-05-14T00:30:08.349Z,92694.19
2023-05-14T00:32:34.987Z,92688.41
2023-05-14T00:35:03.107Z,92692.63
2023-05-14T00:37:29.811Z,92694.22
2023-05-14T00:39:56.233Z,92691.59
2023-05-14T00:42:22.649Z,92688.47
2023-05-14T00:44:49.073Z,92688.97
2023-05-14T00:47:15.909Z,92682.69
2023-05-14T00:49:42.752Z,92678.47
2023-05-14T00:52:10.682Z,92679.53
2023-05-14T00:54:37.372Z,92673.19
2023-05-14T00:57:06.093Z,92672.16
2023-05-14T00:59:32.885Z,92670.09
2023-05-14T01:01:59.361Z,92667.97
2023-05-14T01:04:26.048Z,92662.22
2023-05-14T01:07:09.389Z,92664.84
2023-05-14T01:09:41.747Z,92666.94
2023-05-14T01:12:27.230Z,92671.13
2023-05-14T01:15:11.229Z,92661.16
2023-05-14T01:17:43.438Z,92664.31
2023-05-14T01:20:10.633Z,92666.94
2023-05-14T01:22:37.699Z,92661.69
2023-05-14T01:25:05.989Z,92658.53
2023-05-14T01:27:49.816Z,92658.25
2023-05-14T01:30:26.890Z,92654.34
2023-05-14T01:32:56.294Z,92659.59
2023-05-14T01:35:26.900Z,92647.00
2023-05-14T01:37:59.486Z,92654.84
2023-05-14T01:40:26.788Z,92650.41
2023-05-14T01:42:54.842Z,92641.75
2023-05-14T01:45:21.929Z,92655.66
2023-05-14T01:47:48.597Z,92643.31
2023-05-14T01:50:15.848Z,92651.22
2023-05-14T01:52:42.335Z,92649.09
2023-05-14T01:55:09.344Z,92647.53
2023-05-14T01:57:36.026Z,92649.09
2023-05-14T02:00:03.884Z,92651.22
2023-05-14T02:02:40.605Z,92648.59
2023-05-14T02:05:09.991Z,92650.94
2023-05-14T02:07:36.434Z,92648.06
2023-05-14T02:10:02.842Z,92649.63
2023-05-14T02:12:29.559Z,92637.56
2023-05-14T02:14:56.113Z,92644.63
2023-05-14T02:17:22.665Z,92645.97
2023-05-14T02:19:49.245Z,92648.84
2023-05-14T02:22:15.701Z,92644.91
2023-05-14T02:24:42.542Z,92641.22
2023-05-14T02:27:08.983Z,92644.38
2023-05-14T02:29:35.412Z,92638.34
2023-05-14T02:32:01.860Z,92647.03
2023-05-14T02:34:28.629Z,92637.81
2023-05-14T02:36:55.067Z,92640.44
2023-05-14T02:39:21.542Z,92647.53
2023-05-14T02:41:47.987Z,92638.06
2023-05-14T02:44:14.396Z,92642.56
2023-05-14T02:46:41.362Z,92641.22
2023-05-14T02:49:07.861Z,92640.97
2023-05-14T02:51:34.290Z,92641.22
2023-05-14T02:54:00.825Z,92637.81
2023-05-14T02:56:28.327Z,92645.16
2023-05-14T02:58:54.856Z,92640.72
2023-05-14T03:01:21.965Z,92639.66
2023-05-14T03:03:49.319Z,92635.44
2023-05-14T03:06:16.170Z,92643.31
2023-05-14T03:08:42.664Z,92634.41
2023-05-14T03:11:09.088Z,92634.41
2023-05-14T03:13:35.527Z,92627.56
2023-05-14T03:16:01.964Z,92633.34
2023-05-14T03:18:30.513Z,92630.47
2023-05-14T03:20:57.031Z,92630.72
2023-05-14T03:23:23.497Z,92632.81
2023-05-14T03:25:52.455Z,92629.94
2023-05-14T03:28:18.916Z,92629.66
2023-05-14T03:30:45.426Z,92619.69
2023-05-14T03:33:12.211Z,92622.31
2023-05-14T03:35:39.124Z,92616.81
2023-05-14T03:38:05.999Z,92617.09
2023-05-14T03:40:34.190Z,92619.72
2023-05-14T03:43:00.709Z,92618.66
2023-05-14T03:45:28.605Z,92621.78
2023-05-14T03:47:55.133Z,92616.53
2023-05-14T03:50:23.022Z,92613.13
2023-05-14T03:52:50.583Z,92613.66
2023-05-14T03:55:17.052Z,92614.97
2023-05-14T03:57:43.473Z,92613.41
2023-05-14T04:00:11.424Z,92622.06
2023-05-14T04:02:43.917Z,92621.28
2023-05-14T04:05:10.684Z,92620.47
2023-05-14T04:07:37.140Z,92612.09
2023-05-14T04:10:04.897Z,92616.03
2023-05-14T04:12:34.135Z,92621.00
2023-05-14T04:15:01.384Z,92622.06
2023-05-14T04:17:28.004Z,92618.91
2023-05-14T04:19:54.430Z,92626.78
2023-05-14T04:22:20.854Z,92629.66
2023-05-14T04:24:47.282Z,92628.63
2023-05-14T04:27:23.986Z,92616.81
2023-05-14T04:29:50.880Z,92623.88
2023-05-14T04:32:18.059Z,92622.84
2023-05-14T04:34:44.577Z,92624.69
2023-05-14T04:37:11.019Z,92627.31
2023-05-14T04:39:38.258Z,92628.63
2023-05-14T04:42:05.301Z,92630.19
2023-05-14T04:44:31.721Z,92631.00
2023-05-14T04:46:58.118Z,92627.81
2023-05-14T04:49:24.509Z,92618.63
2023-05-14T04:51:51.114Z,92627.03
2023-05-14T04:54:17.635Z,92628.38
2023-05-14T04:56:44.106Z,92628.09
2023-05-14T04:59:10.581Z,92631.25
2023-05-14T05:01:37.229Z,92625.47
2023-05-14T05:04:03.796Z,92628.09
2023-05-14T05:06:30.228Z,92630.19
2023-05-14T05:08:56.626Z,92631.75
2023-05-14T05:11:23.038Z,92627.59
2023-05-14T05:13:49.454Z,92622.84
2023-05-14T05:16:16.093Z,92616.28
2023-05-14T05:18:44.432Z,92623.09
2023-05-14T05:21:10.986Z,92619.16
2023-05-14T05:23:37.426Z,92619.69
2023-05-14T05:26:03.922Z,92627.03
2023-05-14T05:28:30.340Z,92629.66
2023-05-14T05:30:56.858Z,92634.41
2023-05-14T05:33:23.317Z,92625.47
2023-05-14T05:35:50.136Z,92631.00
2023-05-14T05:38:18.264Z,92629.66
2023-05-14T05:40:44.744Z,92625.47
2023-05-14T05:43:11.338Z,92629.44
2023-05-14T05:45:37.721Z,92627.06
2023-05-14T05:48:04.397Z,92623.94
2023-05-14T05:50:31.779Z,92622.88
2023-05-14T05:53:01.001Z,92632.06
2023-05-14T05:55:28.034Z,92623.16
2023-05-14T05:57:54.470Z,92622.88
2023-05-14T06:00:21.479Z,92619.19
2023-05-14T06:02:49.399Z,92626.28
2023-05-14T06:05:16.002Z,92625.75
2023-05-14T06:07:42.483Z,92622.34
2023-05-14T06:10:08.985Z,92627.59
2023-05-14T06:12:35.424Z,92620.72
2023-05-14T06:15:01.900Z,92622.56
2023-05-14T06:17:28.340Z,92628.31
2023-05-14T06:19:54.780Z,92618.09
2023-05-14T06:22:21.225Z,92629.13
2023-05-14T06:24:47.990Z,92627.28
2023-05-14T06:27:14.488Z,92633.34
2023-05-14T06:29:40.930Z,92636.75
2023-05-14T06:32:07.955Z,92640.44
2023-05-14T06:34:34.496Z,92635.19
2023-05-14T06:37:02.742Z,92631.22
2023-05-14T06:39:29.301Z,92629.09
2023-05-14T06:41:55.769Z,92636.97
2023-05-14T06:44:23.271Z,92633.81
2023-05-14T06:46:49.712Z,92633.28
2023-05-14T06:49:16.279Z,92626.19
2023-05-14T06:51:42.957Z,92631.13
2023-05-14T06:54:09.404Z,92629.53
2023-05-14T06:56:35.824Z,92624.78
2023-05-14T06:59:02.309Z,92629.06
2023-05-14T07:01:28.837Z,92629.03
2023-05-14T07:03:55.341Z,92623.59
2023-05-14T07:06:22.453Z,92625.34
2023-05-14T07:08:49.018Z,92616.94
2023-05-14T07:11:15.587Z,92622.47
2023-05-14T07:13:42.680Z,92620.34
2023-05-14T07:16:10.233Z,92616.88
2023-05-14T07:18:37.110Z,92614.56
2023-05-14T07:21:06.626Z,92613.44
2023-05-14T07:23:36.481Z,92616.50
2023-05-14T07:26:03.507Z,92606.16
2023-05-14T07:28:29.964Z,92609.06
2023-05-14T07:30:56.651Z,92611.69
2023-05-14T07:33:23.735Z,92602.47
2023-05-14T07:35:50.783Z,92599.47
2023-05-14T07:38:19.823Z,92601.44
2023-05-14T07:40:46.224Z,92604.38
2023-05-14T07:43:13.079Z,92607.13
2023-05-14T07:45:39.704Z,92612.66
2023-05-14T07:48:06.451Z,92610.13
2023-05-14T07:50:33.021Z,92608.69
2023-05-14T07:52:59.512Z,92608.03
2023-05-14T07:55:25.981Z,92607.00
2023-05-14T07:57:52.426Z,92612.25
2023-05-14T08:00:19.097Z,92607.00
2023-05-14T08:02:45.916Z,92607.94
2023-05-14T08:05:12.609Z,92613.84
2023-05-14T08:07:39.011Z,92609.69
2023-05-14T08:10:07.728Z,92609.13
2023-05-14T08:12:34.313Z,92609.84
2023-05-14T08:15:00.736Z,92612.25
2023-05-14T08:17:27.281Z,92613.34
2023-05-14T08:19:54.047Z,92609.66
2023-05-14T08:22:20.564Z,92613.72
2023-05-14T08:24:47.036Z,92611.69
2023-05-14T08:27:13.467Z,92617.47
2023-05-14T08:29:39.889Z,92612.53
2023-05-14T08:32:15.950Z,92613.84
2023-05-14T08:34:49.596Z,92617.69
2023-05-14T08:37:16.091Z,92614.03
2023-05-14T08:39:42.511Z,92616.69
2023-05-14T08:42:11.071Z,92611.09
2023-05-14T08:44:53.965Z,92617.16
2023-05-14T08:47:22.108Z,92616.59
2023-05-14T08:49:54.807Z,92610.50
2023-05-14T08:52:22.287Z,92607.00
2023-05-14T08:54:51.085Z,92608.31
2023-05-14T08:57:18.756Z,92605.66
2023-05-14T08:59:45.288Z,92601.84
2023-05-14T09:02:15.016Z,92598.47
2023-05-14T09:04:42.369Z,92595.09
2023-05-14T09:07:09.051Z,92595.75
2023-05-14T09:09:35.616Z,92601.22
2023-05-14T09:12:02.245Z,92596.69
2023-05-14T09:14:28.718Z,92595.03
2023-05-14T09:16:55.446Z,92589.84
2023-05-14T09:19:21.970Z,92593.59
2023-05-14T09:21:49.575Z,92592.03
2023-05-14T09:24:24.181Z,92596.38
2023-05-14T09:26:52.556Z,92589.25
2023-05-14T09:29:19.132Z,92588.59
2023-05-14T09:31:45.850Z,92586.44
2023-05-14T09:34:23.930Z,92577.66
2023-05-14T09:36:50.405Z,92581.69
2023-05-14T09:39:17.583Z,92578.66
2023-05-14T09:41:43.974Z,92582.19
2023-05-14T09:44:10.828Z,92579.53
2023-05-14T09:46:37.242Z,92587.47
2023-05-14T09:49:03.663Z,92578.19
2023-05-14T09:51:34.409Z,92580.03
2023-05-14T09:54:01.330Z,92572.09
2023-05-14T09:56:27.785Z,92572.31
2023-05-14T09:58:54.982Z,92569.53
2023-05-14T10:01:22.692Z,92571.72
2023-05-14T10:03:49.829Z,92565.34
2023-05-14T10:06:17.778Z,92566.03
2023-05-14T10:08:45.391Z,92570.53
2023-05-14T10:11:25.588Z,92557.63
2023-05-14T10:14:39.293Z,92559.34
2023-05-14T10:17:06.481Z,92559.16
2023-05-14T10:19:37.271Z,92561.63
2023-05-14T10:22:05.510Z,92555.25
2023-05-14T10:24:33.137Z,92557.91
2023-05-14T10:27:00.169Z,92566.22
2023-05-14T10:29:34.819Z,92563.97
2023-05-14T10:32:06.246Z,92563.88
2023-05-14T10:34:33.413Z,92563.88
2023-05-14T10:37:02.025Z,92562.34
2023-05-14T10:39:47.094Z,92561.78
2023-05-14T10:42:21.753Z,92570.16
2023-05-14T10:45:15.306Z,92562.69
2023-05-14T10:47:47.045Z,92564.38
2023-05-14T10:50:17.408Z,92562.31
2023-05-14T10:52:44.670Z,92561.63
2023-05-14T10:55:15.916Z,92556.03
2023-05-14T10:57:45.274Z,92551.03
2023-05-14T11:00:14.000Z,92550.94
2023-05-14T11:02:44.880Z,92540.66
2023-05-14T11:05:17.510Z,92545.66
2023-05-14T11:07:51.142Z,92546.56
2023-05-14T11:10:19.607Z,92544.47
2023-05-14T11:12:48.575Z,92539.28
2023-05-14T11:15:17.579Z,92537.00
2023-05-14T11:17:45.479Z,92527.00
2023-05-14T11:20:12.757Z,92529.31
2023-05-14T11:22:41.018Z,92532.16
2023-05-14T11:25:08.606Z,92530.50
2023-05-14T11:27:37.382Z,92533.22
2023-05-14T11:30:04.750Z,92536.25
2023-05-14T11:32:35.013Z,92529.47
2023-05-14T11:35:01.493Z,92524.38
2023-05-14T11:37:27.982Z,92524.84
2023-05-14T11:39:55.740Z,92524.69
2023-05-14T11:42:23.611Z,92517.19
2023-05-14T11:44:54.179Z,92513.13
2023-05-14T11:47:21.795Z,92514.50
2023-05-14T11:49:49.017Z,92508.56
2023-05-14T11:52:16.623Z,92512.19
2023-05-14T11:54:44.263Z,92514.56
2023-05-14T11:57:13.496Z,92515.56
2023-05-14T11:59:40.522Z,92510.38
2023-05-14T12:02:16.108Z,92502.50
2023-05-14T12:04:43.501Z,92498.66
2023-05-14T12:07:12.208Z,92492.25
2023-05-14T12:09:45.093Z,92492.91
2023-05-14T12:12:12.656Z,92500.75
2023-05-14T12:14:41.638Z,92500.19
2023-05-14T12:17:14.207Z,92498.91
2023-05-14T12:19:42.542Z,92498.94
2023-05-14T12:22:10.661Z,92511.50
2023-05-14T12:24:39.125Z,92503.06
2023-05-14T12:27:06.643Z,92494.84
2023-05-14T12:29:36.873Z,92492.09
2023-05-14T12:32:08.536Z,92487.28
2023-05-14T12:34:37.322Z,92480.97
2023-05-14T12:37:04.933Z,92486.13
2023-05-14T12:39:34.008Z,92480.31
2023-05-14T12:42:01.346Z,92477.19
2023-05-14T12:44:28.251Z,92478.91
2023-05-14T12:46:54.864Z,92474.56
2023-05-14T12:49:21.334Z,92477.84
2023-05-14T12:51:47.731Z,92471.25
2023-05-14T12:54:15.800Z,92470.84
2023-05-14T12:56:42.774Z,92468.31
2023-05-14T12:59:09.559Z,92466.59
2023-05-14T13:01:36.695Z,92465.47
2023-05-14T13:04:03.425Z,92470.66
2023-05-14T13:06:29.865Z,92463.88
2023-05-14T13:08:56.691Z,92458.72
2023-05-14T13:11:23.095Z,92464.38
2023-05-14T13:13:49.493Z,92469.38
2023-05-14T13:16:16.881Z,92465.28
2023-05-14T13:18:43.486Z,92469.72
2023-05-14T13:21:09.927Z,92475.31
2023-05-14T13:23:36.343Z,92487.44
2023-05-14T13:26:02.776Z,92494.00
2023-05-14T13:28:29.215Z,92502.47
2023-05-14T13:31:14.282Z,92506.19
2023-05-14T13:33:43.405Z,92510.78
2023-05-14T13:36:11.684Z,92510.50
2023-05-14T13:38:38.374Z,92508.38
2023-05-14T13:41:05.466Z,92501.25
2023-05-14T13:43:33.514Z,92498.94
2023-05-14T13:46:01.089Z,92497.69
2023-05-14T13:48:27.825Z,92501.06
2023-05-14T13:50:54.847Z,92499.94
2023-05-14T13:53:22.960Z,92499.50
2023-05-14T13:55:50.196Z,92498.63
2023-05-14T13:58:16.696Z,92492.97
2023-05-14T14:00:43.133Z,92485.84
2023-05-14T14:03:09.634Z,92483.50
2023-05-14T14:05:36.487Z,92482.13
2023-05-14T14:08:13.184Z,92480.38
2023-05-14T14:10:48.915Z,92485.66
2023-05-14T14:13:15.458Z,92483.00
2023-05-14T14:15:42.511Z,92477.59
2023-05-14T14:18:08.948Z,92469.81
2023-05-14T14:20:35.401Z,92468.97
2023-05-14T14:23:01.890Z,92469.53
2023-05-14T14:25:28.500Z,92461.88
2023-05-14T14:27:54.927Z,92470.50
2023-05-14T14:30:21.386Z,92462.59
2023-05-14T14:32:49.187Z,92458.28
2023-05-14T14:35:18.248Z,92451.00
2023-05-14T14:37:48.946Z,92448.19
2023-05-14T14:40:16.505Z,92448.38
2023-05-14T14:42:43.255Z,92442.19
2023-05-14T14:45:10.157Z,92444.97
2023-05-14T14:47:36.667Z,92438.22
2023-05-14T14:50:03.304Z,92435.13
2023-05-14T14:52:29.817Z,92443.63
2023-05-14T14:54:56.431Z,92441.28
2023-05-14T14:57:23.053Z,92448.50
2023-05-14T14:59:49.596Z,92436.84
2023-05-14T15:02:16.199Z,92449.97
2023-05-14T15:04:42.870Z,92445.78
2023-05-14T15:07:09.444Z,92449.72
2023-05-14T15:09:35.965Z,92444.16
2023-05-14T15:12:02.439Z,92455.13
2023-05-14T15:14:28.899Z,92465.34
2023-05-14T15:16:55.328Z,92465.00
2023-05-14T15:19:21.937Z,92472.22
2023-05-14T15:21:48.448Z,92462.97
2023-05-14T15:24:14.888Z,92467.72
2023-05-14T15:26:41.825Z,92476.31
2023-05-14T15:29:08.373Z,92470.19
2023-05-14T15:31:34.900Z,92472.19
2023-05-14T15:34:01.504Z,92468.94
2023-05-14T15:36:28.596Z,92473.50
2023-05-14T15:38:55.070Z,92472.66
2023-05-14T15:41:22.680Z,92472.53
2023-05-14T15:43:49.119Z,92475.41
2023-05-14T15:46:15.746Z,92473.22
2023-05-14T15:48:42.185Z,92479.44
2023-05-14T15:51:08.623Z,92479.44
2023-05-14T15:53:35.156Z,92480.72
2023-05-14T15:56:02.340Z,92482.09
2023-05-14T15:58:28.742Z,92473.16
2023-05-14T16:00:55.164Z,92471.56
2023-05-14T16:03:21.657Z,92469.16
2023-05-14T16:05:48.565Z,92473.47
2023-05-14T16:08:15.005Z,92474.78
2023-05-14T16:10:41.500Z,92466.81
2023-05-14T16:13:07.958Z,92471.59
2023-05-14T16:15:34.400Z,92467.19
2023-05-14T16:18:00.888Z,92460.81
2023-05-14T16:20:27.327Z,92456.72
2023-05-14T16:22:53.773Z,92460.56
2023-05-14T16:25:20.292Z,92458.56
2023-05-14T16:27:46.782Z,92455.72
2023-05-14T16:30:13.373Z,92456.38
2023-05-14T16:32:41.834Z,92454.53
2023-05-14T16:35:08.867Z,92459.16
2023-05-14T16:37:35.768Z,92450.97
2023-05-14T16:40:02.305Z,92456.13
2023-05-14T16:42:28.861Z,92451.81
2023-05-14T16:44:55.294Z,92449.34
2023-05-14T16:47:21.810Z,92451.22
2023-05-14T16:49:48.515Z,92443.88
2023-05-14T16:52:15.280Z,92446.53
2023-05-14T16:54:41.709Z,92439.56
2023-05-14T16:57:08.139Z,92441.94
2023-05-14T16:59:34.572Z,92449.41
2023-05-14T17:02:01.231Z,92446.28
2023-05-14T17:04:27.881Z,92445.19
2023-05-14T17:06:55.217Z,92441.44
2023-05-14T17:09:21.666Z,92449.75
2023-05-14T17:11:48.077Z,92442.78
2023-05-14T17:14:14.839Z,92441.75
2023-05-14T17:16:42.272Z,92444.81
2023-05-14T17:19:08.759Z,92442.28
2023-05-14T17:21:35.200Z,92447.97
2023-05-14T17:24:01.626Z,92446.25
2023-05-14T17:26:28.047Z,92454.31
2023-05-14T17:28:54.544Z,92449.72
2023-05-14T17:31:22.196Z,92449.06
2023-05-14T17:33:48.992Z,92454.72
2023-05-14T17:36:15.462Z,92457.78
2023-05-14T17:38:42.051Z,92460.69
2023-05-14T17:41:08.523Z,92454.53
2023-05-14T17:43:35.023Z,92449.25
2023-05-14T17:46:01.531Z,92465.75
2023-05-14T17:48:27.958Z,92461.16
2023-05-14T17:50:54.417Z,92464.97
2023-05-14T17:53:21.314Z,92463.78
2023-05-14T17:55:48.039Z,92476.75
2023-05-14T17:58:15.470Z,92467.81
2023-05-14T18:00:42.486Z,92463.84
2023-05-14T18:03:09.279Z,92459.63
2023-05-14T18:05:36.280Z,92460.03
2023-05-14T18:08:03.241Z,92453.28
2023-05-14T18:10:29.764Z,92465.72
2023-05-14T18:12:56.589Z,92468.47
2023-05-14T18:15:25.437Z,92467.16
2023-05-14T18:17:52.658Z,92471.59
2023-05-14T18:20:19.606Z,92473.50
2023-05-14T18:22:46.110Z,92474.59
2023-05-14T18:25:12.906Z,92473.81
2023-05-14T18:27:44.294Z,92472.00
2023-05-14T18:30:15.245Z,92473.06
2023-05-14T18:32:44.187Z,92479.09
2023-05-14T18:35:12.243Z,92474.91
2023-05-14T18:37:39.047Z,92474.38
2023-05-14T18:40:06.964Z,92474.81
2023-05-14T18:42:34.257Z,92472.75
2023-05-14T18:45:01.372Z,92478.56
2023-05-14T18:47:27.883Z,92483.19
2023-05-14T18:49:55.766Z,92482.09
2023-05-14T18:52:26.126Z,92480.94
2023-05-14T18:54:53.665Z,92483.63
2023-05-14T18:57:20.948Z,92486.63
2023-05-14T18:59:47.409Z,92492.22
2023-05-14T19:02:13.828Z,92493.63
2023-05-14T19:04:51.280Z,92496.59
2023-05-14T19:07:19.315Z,92501.25
2023-05-14T19:09:45.779Z,92497.38
2023-05-14T19:12:12.615Z,92502.00
2023-05-14T19:14:39.040Z,92500.28
2023-05-14T19:17:05.753Z,92503.31
2023-05-14T19:19:32.552Z,92504.19
2023-05-14T19:21:59.052Z,92504.44
2023-05-14T19:24:25.790Z,92512.63
2023-05-14T19:26:52.417Z,92517.69
2023-05-14T19:29:18.834Z,92515.09
2023-05-14T19:31:45.316Z,92515.59
2023-05-14T19:34:11.761Z,92513.25
2023-05-14T19:36:38.230Z,92515.69
2023-05-14T19:39:04.658Z,92523.06
2023-05-14T19:41:31.102Z,92521.81
2023-05-14T19:43:57.523Z,92524.94
2023-05-14T19:46:24.132Z,92528.41
2023-05-14T19:48:50.636Z,92528.72
2023-05-14T19:51:17.031Z,92531.13
2023-05-14T19:53:43.520Z,92536.63
2023-05-14T19:56:10.901Z,92531.13
2023-05-14T19:58:37.401Z,92530.31
2023-05-14T20:01:04.320Z,92534.25
2023-05-14T20:03:30.912Z,92533.53
2023-05-14T20:05:57.906Z,92536.69
2023-05-14T20:08:24.837Z,92538.00
2023-05-14T20:10:51.286Z,92529.63
2023-05-14T20:13:17.722Z,92529.88
2023-05-14T20:15:44.286Z,92526.97
2023-05-14T20:18:10.732Z,92531.44
2023-05-14T20:20:37.350Z,92529.09
2023-05-14T20:23:03.832Z,92531.44
2023-05-14T20:25:32.579Z,92524.63
2023-05-14T20:28:00.335Z,92530.41
2023-05-14T20:30:27.686Z,92530.94
2023-05-14T20:32:54.131Z,92522.28
2023-05-14T20:35:20.668Z,92524.91
2023-05-14T20:37:47.251Z,92523.06
2023-05-14T20:40:13.839Z,92511.53
2023-05-14T20:42:40.672Z,92508.91
2023-05-14T20:45:07.791Z,92505.75
2023-05-14T20:47:35.623Z,92506.00
2023-05-14T20:50:02.213Z,92495.25
2023-05-14T20:52:28.676Z,92490.53
2023-05-14T20:54:59.453Z,92490.00
2023-05-14T20:57:28.616Z,92488.16
2023-05-14T20:59:55.015Z,92484.47
2023-05-14T21:02:21.571Z,92479.50
2023-05-14T21:04:48.228Z,92477.16
2023-05-14T21:07:14.796Z,92477.41
2023-05-14T21:09:41.369Z,92476.38
2023-05-14T21:12:08.220Z,92473.25
2023-05-14T21:14:34.689Z,92475.09
2023-05-14T21:17:01.163Z,92471.69
2023-05-14T21:19:27.600Z,92473.00
2023-05-14T21:21:54.145Z,92474.59
2023-05-14T21:24:20.595Z,92474.81
2023-05-14T21:26:47.073Z,92475.09
2023-05-14T21:29:13.493Z,92476.16
2023-05-14T21:31:39.989Z,92469.59
2023-05-14T21:34:06.530Z,92476.41
2023-05-14T21:36:33.049Z,92472.19
2023-05-14T21:38:59.516Z,92473.25
2023-05-14T21:41:26.278Z,92481.88
2023-05-14T21:43:52.847Z,92482.16
2023-05-14T21:46:19.432Z,92481.34
2023-05-14T21:48:45.937Z,92491.03
2023-05-14T21:51:12.438Z,92487.88
2023-05-14T21:53:38.903Z,92477.41
2023-05-14T21:56:06.038Z,92480.03
2023-05-14T21:58:32.505Z,92478.44
2023-05-14T22:00:58.937Z,92477.66
2023-05-14T22:03:25.459Z,92478.97
2023-05-14T22:05:51.954Z,92474.78
2023-05-14T22:08:18.470Z,92477.94
2023-05-14T22:10:46.811Z,92476.59
2023-05-14T22:13:13.300Z,92481.31
2023-05-14T22:15:39.791Z,92483.66
2023-05-14T22:18:06.852Z,92468.72
2023-05-14T22:20:33.454Z,92475.03
2023-05-14T22:22:59.858Z,92472.16
2023-05-14T22:25:26.507Z,92464.28
2023-05-14T22:27:53.212Z,92467.16
2023-05-14T22:30:19.651Z,92460.09
2023-05-14T22:32:46.099Z,92454.84
2023-05-14T22:35:12.670Z,92456.41
2023-05-14T22:37:39.109Z,92453.25
2023-05-14T22:40:07.418Z,92448.25
2023-05-14T22:42:33.818Z,92459.50
2023-05-14T22:45:00.248Z,92457.41
2023-05-14T22:47:26.878Z,92464.72
2023-05-14T22:49:53.331Z,92464.19
2023-05-14T22:52:19.791Z,92466.78
2023-05-14T22:54:46.648Z,92468.84
2023-05-14T22:57:13.124Z,92462.00
2023-05-14T22:59:39.677Z,92463.38
2023-05-14T23:02:06.827Z,92459.38
2023-05-14T23:04:33.444Z,92465.09
2023-05-14T23:07:00.020Z,92462.75
2023-05-14T23:09:26.502Z,92457.22
2023-05-14T23:11:52.933Z,92459.31
2023-05-14T23:14:19.648Z,92461.38
2023-05-14T23:16:46.194Z,92462.97
2023-05-14T23:19:12.874Z,92456.66
2023-05-14T23:21:39.462Z,92459.00
2023-05-14T23:24:06.183Z,92458.78
2023-05-14T23:26:32.717Z,92458.25
2023-05-14T23:28:59.218Z,92467.66
2023-05-14T23:31:25.824Z,92454.28
2023-05-14T23:33:52.256Z,92459.75
2023-05-14T23:36:18.854Z,92449.34
2023-05-14T23:38:45.791Z,92456.13
2023-05-14T23:41:12.248Z,92449.34
2023-05-14T23:43:38.684Z,92445.63
2023-05-14T23:46:05.329Z,92446.44
2023-05-14T23:48:32.047Z,92440.91
2023-05-14T23:50:58.522Z,92442.75
2023-05-14T23:53:24.969Z,92439.84
2023-05-14T23:55:51.506Z,92434.59
2023-05-14T23:58:18.058Z,92438.28
